createdAt,value
2023-04-30T00:00:46.641Z,0.00
2023-04-30T00:01:46.727Z,0.00
2023-04-30T00:02:46.870Z,0.00
2023-04-30T00:03:46.816Z,0.00
2023-04-30T00:04:46.727Z,0.00
2023-04-30T00:05:46.745Z,0.00
2023-04-30T00:06:46.856Z,0.00
2023-04-30T00:07:46.796Z,0.00
2023-04-30T00:08:46.858Z,0.00
2023-04-30T00:09:46.832Z,0.00
2023-04-30T00:10:46.851Z,0.00
2023-04-30T00:11:46.875Z,0.00
2023-04-30T00:12:46.893Z,0.00
2023-04-30T00:13:46.921Z,0.00
2023-04-30T00:14:46.938Z,0.00
2023-04-30T00:15:46.958Z,0.00
2023-04-30T00:16:47.043Z,0.00
2023-04-30T00:17:47.025Z,0.00
2023-04-30T00:18:47.018Z,0.00
2023-04-30T00:19:47.040Z,0.00
2023-04-30T00:20:47.059Z,0.00
2023-04-30T00:21:47.081Z,0.00
2023-04-30T00:22:47.102Z,0.00
2023-04-30T00:23:47.125Z,0.00
2023-04-30T00:24:47.142Z,0.00
2023-04-30T00:25:47.166Z,0.00
2023-04-30T00:26:47.191Z,0.00
2023-04-30T00:27:47.205Z,0.00
2023-04-30T00:28:47.230Z,0.00
2023-04-30T00:29:47.251Z,0.00
2023-04-30T00:30:47.274Z,0.00
2023-04-30T00:31:47.304Z,0.00
2023-04-30T00:32:47.340Z,0.00
2023-04-30T00:33:47.328Z,0.00
2023-04-30T00:34:47.352Z,0.00
2023-04-30T00:35:47.387Z,0.00
2023-04-30T00:36:47.390Z,0.00
2023-04-30T00:37:47.411Z,0.00
2023-04-30T00:38:47.435Z,0.00
2023-04-30T00:39:47.456Z,0.00
2023-04-30T00:40:47.472Z,0.00
2023-04-30T00:41:47.490Z,0.00
2023-04-30T00:42:47.514Z,0.00
2023-04-30T00:43:47.538Z,0.00
2023-04-30T00:44:47.562Z,0.00
2023-04-30T00:45:47.613Z,0.00
2023-04-30T00:46:47.598Z,0.00
2023-04-30T00:47:47.669Z,0.00
2023-04-30T00:48:47.644Z,0.00
2023-04-30T00:49:47.662Z,0.00
2023-04-30T00:50:47.694Z,0.00
2023-04-30T00:51:47.716Z,0.00
2023-04-30T00:52:47.730Z,0.00
2023-04-30T00:53:47.740Z,0.00
2023-04-30T00:54:47.779Z,0.00
2023-04-30T00:55:47.784Z,0.00
2023-04-30T00:56:47.808Z,0.00
2023-04-30T00:57:47.817Z,0.00
2023-04-30T00:58:47.846Z,0.00
2023-04-30T00:59:47.889Z,0.00
2023-04-30T01:00:47.885Z,0.00
2023-04-30T01:01:48.084Z,0.00
2023-04-30T01:02:47.971Z,0.00
2023-04-30T01:03:48.054Z,0.00
2023-04-30T01:04:47.994Z,0.00
2023-04-30T01:05:47.991Z,0.00
2023-04-30T01:06:48.005Z,0.00
2023-04-30T01:07:48.029Z,0.00
2023-04-30T01:08:48.052Z,0.00
2023-04-30T01:09:48.068Z,0.00
2023-04-30T01:10:48.097Z,0.00
2023-04-30T01:11:48.116Z,0.00
2023-04-30T01:12:48.134Z,0.00
2023-04-30T01:13:48.151Z,0.00
2023-04-30T01:14:48.169Z,0.00
2023-04-30T01:15:48.192Z,0.00
2023-04-30T01:16:48.206Z,0.00
2023-04-30T01:17:48.275Z,0.00
2023-04-30T01:18:48.345Z,0.00
2023-04-30T01:19:48.283Z,0.00
2023-04-30T01:20:48.292Z,0.00
2023-04-30T01:21:48.312Z,0.00
2023-04-30T01:22:48.341Z,0.00
2023-04-30T01:23:48.369Z,0.00
2023-04-30T01:24:48.372Z,0.00
2023-04-30T01:25:48.398Z,0.00
2023-04-30T01:26:48.413Z,0.00
2023-04-30T01:27:48.446Z,0.00
2023-04-30T01:28:48.453Z,0.00
2023-04-30T01:29:48.483Z,0.00
2023-04-30T01:30:48.495Z,0.00
2023-04-30T01:31:48.603Z,0.00
2023-04-30T01:32:48.567Z,0.00
2023-04-30T01:33:48.554Z,0.00
2023-04-30T01:34:48.571Z,0.00
2023-04-30T01:35:48.595Z,0.00
2023-04-30T01:36:48.624Z,0.00
2023-04-30T01:37:48.637Z,0.00
2023-04-30T01:38:48.660Z,0.00
2023-04-30T01:39:48.680Z,0.00
2023-04-30T01:40:48.708Z,0.00
2023-04-30T01:41:48.726Z,0.00
2023-04-30T01:42:48.744Z,0.00
2023-04-30T01:43:48.759Z,0.00
2023-04-30T01:44:48.790Z,0.00
2023-04-30T01:45:48.812Z,0.00
2023-04-30T01:46:48.825Z,0.00
2023-04-30T01:47:48.899Z,0.00
2023-04-30T01:48:48.860Z,0.00
2023-04-30T01:49:48.884Z,0.00
2023-04-30T01:50:48.903Z,0.00
2023-04-30T01:51:48.925Z,0.00
2023-04-30T01:52:48.950Z,0.00
2023-04-30T01:53:48.965Z,0.00
2023-04-30T01:54:49.005Z,0.00
2023-04-30T01:55:49.006Z,0.00
2023-04-30T01:56:49.023Z,0.00
2023-04-30T01:57:49.046Z,0.00
2023-04-30T01:58:49.068Z,0.00
2023-04-30T01:59:49.088Z,0.00
2023-04-30T02:00:49.102Z,0.00
2023-04-30T02:01:49.153Z,0.00
2023-04-30T02:02:49.184Z,0.00
2023-04-30T02:03:49.302Z,0.00
2023-04-30T02:04:49.189Z,0.00
2023-04-30T02:05:49.204Z,0.00
2023-04-30T02:06:49.221Z,0.00
2023-04-30T02:07:49.245Z,0.00
2023-04-30T02:08:49.274Z,0.00
2023-04-30T02:09:49.283Z,0.00
2023-04-30T02:10:49.306Z,0.00
2023-04-30T02:11:49.321Z,0.00
2023-04-30T02:12:49.345Z,0.00
2023-04-30T02:13:49.363Z,0.00
2023-04-30T02:14:49.389Z,0.00
2023-04-30T02:15:49.410Z,0.00
2023-04-30T02:16:49.426Z,0.00
2023-04-30T02:17:49.494Z,0.00
2023-04-30T02:18:49.464Z,0.00
2023-04-30T02:19:49.482Z,0.00
2023-04-30T02:20:49.500Z,0.00
2023-04-30T02:21:49.524Z,0.00
2023-04-30T02:22:49.538Z,0.00
2023-04-30T02:23:49.559Z,0.00
2023-04-30T02:24:49.579Z,0.00
2023-04-30T02:25:49.599Z,0.00
2023-04-30T02:26:49.622Z,0.00
2023-04-30T02:27:49.640Z,0.00
2023-04-30T02:28:49.673Z,0.00
2023-04-30T02:29:49.679Z,0.00
2023-04-30T02:30:49.704Z,0.00
2023-04-30T02:31:49.736Z,0.00
2023-04-30T02:32:49.757Z,0.00
2023-04-30T02:33:49.786Z,0.00
2023-04-30T02:34:49.782Z,0.00
2023-04-30T02:35:49.807Z,0.00
2023-04-30T02:36:49.832Z,0.00
2023-04-30T02:37:49.845Z,0.00
2023-04-30T02:38:49.860Z,0.00
2023-04-30T02:39:49.878Z,0.00
2023-04-30T02:40:49.897Z,0.00
2023-04-30T02:41:49.915Z,0.00
2023-04-30T02:42:49.938Z,0.00
2023-04-30T02:43:49.972Z,0.00
2023-04-30T02:44:49.988Z,0.00
2023-04-30T02:45:50.059Z,0.00
2023-04-30T02:46:50.023Z,0.00
2023-04-30T02:47:50.060Z,0.00
2023-04-30T02:48:50.069Z,0.00
2023-04-30T02:49:50.086Z,0.00
2023-04-30T02:50:50.104Z,0.00
2023-04-30T02:51:50.123Z,0.00
2023-04-30T02:52:50.135Z,0.00
2023-04-30T02:53:50.155Z,0.00
2023-04-30T02:54:50.175Z,0.00
2023-04-30T02:55:50.197Z,0.00
2023-04-30T02:56:50.221Z,0.00
2023-04-30T02:57:50.251Z,0.00
2023-04-30T02:58:50.253Z,0.00
2023-04-30T02:59:50.290Z,0.00
2023-04-30T03:00:50.304Z,0.00
2023-04-30T03:01:50.418Z,0.00
2023-04-30T03:02:50.392Z,0.00
2023-04-30T03:03:50.360Z,0.00
2023-04-30T03:04:50.371Z,0.00
2023-04-30T03:05:50.407Z,0.00
2023-04-30T03:06:50.412Z,0.00
2023-04-30T03:07:50.436Z,0.00
2023-04-30T03:08:50.449Z,0.00
2023-04-30T03:09:50.482Z,0.00
2023-04-30T03:10:50.493Z,0.00
2023-04-30T03:11:50.515Z,0.00
2023-04-30T03:12:50.528Z,0.00
2023-04-30T03:13:50.553Z,0.00
2023-04-30T03:14:50.578Z,0.00
2023-04-30T03:15:50.598Z,0.00
2023-04-30T03:16:50.608Z,0.00
2023-04-30T03:17:50.643Z,0.00
2023-04-30T03:18:50.651Z,0.00
2023-04-30T03:19:50.670Z,0.00
2023-04-30T03:20:50.685Z,0.00
2023-04-30T03:21:50.711Z,0.00
2023-04-30T03:22:50.743Z,0.00
2023-04-30T03:23:50.763Z,0.00
2023-04-30T03:24:50.794Z,0.00
2023-04-30T03:25:50.800Z,0.00
2023-04-30T03:26:50.815Z,0.00
2023-04-30T03:27:50.830Z,0.00
2023-04-30T03:28:50.872Z,0.00
2023-04-30T03:29:50.872Z,0.00
2023-04-30T03:30:50.888Z,0.00
2023-04-30T03:31:50.938Z,0.00
2023-04-30T03:32:50.942Z,0.00
2023-04-30T03:33:51.001Z,0.00
2023-04-30T03:34:50.976Z,0.00
2023-04-30T03:35:51.020Z,0.00
2023-04-30T03:36:51.022Z,0.00
2023-04-30T03:37:51.033Z,0.00
2023-04-30T03:38:51.050Z,0.00
2023-04-30T03:39:51.072Z,0.00
2023-04-30T03:40:51.091Z,0.00
2023-04-30T03:41:51.107Z,0.00
2023-04-30T03:42:51.528Z,0.00
2023-04-30T03:43:51.148Z,0.00
2023-04-30T03:44:51.166Z,0.00
2023-04-30T03:45:51.238Z,0.00
2023-04-30T03:46:51.203Z,0.00
2023-04-30T03:47:51.246Z,0.00
2023-04-30T03:48:51.243Z,0.00
2023-04-30T03:49:51.286Z,0.00
2023-04-30T03:50:51.281Z,0.00
2023-04-30T03:51:51.308Z,5.63
2023-04-30T03:52:51.326Z,5.63
2023-04-30T03:53:51.351Z,5.63
2023-04-30T03:54:51.375Z,5.63
2023-04-30T03:55:51.383Z,5.63
2023-04-30T03:56:51.411Z,5.63
2023-04-30T03:57:51.424Z,5.63
2023-04-30T03:58:51.444Z,5.63
2023-04-30T03:59:51.474Z,11.25
2023-04-30T04:00:51.482Z,11.25
2023-04-30T04:01:51.516Z,11.25
2023-04-30T04:02:51.570Z,11.25
2023-04-30T04:03:51.602Z,11.25
2023-04-30T04:04:51.560Z,16.88
2023-04-30T04:05:51.582Z,16.88
2023-04-30T04:06:51.602Z,16.88
2023-04-30T04:07:51.618Z,16.88
2023-04-30T04:08:51.639Z,16.88
2023-04-30T04:09:51.805Z,22.50
2023-04-30T04:10:51.678Z,22.50
2023-04-30T04:11:51.700Z,22.50
2023-04-30T04:12:51.728Z,22.50
2023-04-30T04:13:51.743Z,28.13
2023-04-30T04:14:51.756Z,28.13
2023-04-30T04:15:51.793Z,28.13
2023-04-30T04:16:51.796Z,33.75
2023-04-30T04:17:51.857Z,33.75
2023-04-30T04:18:51.844Z,33.75
2023-04-30T04:19:52.152Z,39.38
2023-04-30T04:20:51.871Z,39.38
2023-04-30T04:21:51.902Z,45.00
2023-04-30T04:22:51.912Z,50.63
2023-04-30T04:23:51.939Z,61.88
2023-04-30T04:24:51.950Z,61.88
2023-04-30T04:25:51.980Z,56.25
2023-04-30T04:26:51.996Z,56.25
2023-04-30T04:27:52.019Z,56.25
2023-04-30T04:28:52.031Z,56.25
2023-04-30T04:29:52.158Z,56.25
2023-04-30T04:30:52.079Z,61.88
2023-04-30T04:31:52.108Z,61.88
2023-04-30T04:32:52.142Z,61.88
2023-04-30T04:33:52.129Z,61.88
2023-04-30T04:34:52.161Z,67.50
2023-04-30T04:35:52.176Z,67.50
2023-04-30T04:36:52.187Z,67.50
2023-04-30T04:37:52.206Z,73.13
2023-04-30T04:38:52.227Z,73.13
2023-04-30T04:39:52.456Z,73.13
2023-04-30T04:40:52.267Z,78.75
2023-04-30T04:41:52.289Z,78.75
2023-04-30T04:42:52.321Z,84.38
2023-04-30T04:43:52.325Z,84.38
2023-04-30T04:44:52.346Z,84.38
2023-04-30T04:45:52.427Z,101.25
2023-04-30T04:46:52.428Z,123.75
2023-04-30T04:47:52.529Z,157.50
2023-04-30T04:48:52.425Z,174.38
2023-04-30T04:49:52.894Z,174.38
2023-04-30T04:50:52.459Z,174.38
2023-04-30T04:51:52.494Z,174.38
2023-04-30T04:52:52.512Z,185.63
2023-04-30T04:53:52.532Z,185.63
2023-04-30T04:54:52.544Z,191.25
2023-04-30T04:55:52.560Z,191.25
2023-04-30T04:56:52.608Z,191.25
2023-04-30T04:57:52.609Z,191.25
2023-04-30T04:58:52.646Z,174.38
2023-04-30T04:59:53.036Z,191.25
2023-04-30T05:00:52.664Z,202.50
2023-04-30T05:01:52.740Z,196.88
2023-04-30T05:02:52.791Z,208.13
2023-04-30T05:03:52.811Z,208.13
2023-04-30T05:04:52.754Z,213.75
2023-04-30T05:05:52.784Z,213.75
2023-04-30T05:06:52.788Z,191.25
2023-04-30T05:07:52.828Z,185.63
2023-04-30T05:08:52.838Z,196.88
2023-04-30T05:09:53.190Z,230.63
2023-04-30T05:10:52.880Z,241.88
2023-04-30T05:11:52.903Z,208.13
2023-04-30T05:12:52.938Z,185.63
2023-04-30T05:13:52.948Z,241.88
2023-04-30T05:14:52.979Z,292.50
2023-04-30T05:15:53.054Z,270.00
2023-04-30T05:16:53.019Z,219.38
2023-04-30T05:17:53.109Z,208.13
2023-04-30T05:18:53.055Z,191.25
2023-04-30T05:19:53.582Z,185.63
2023-04-30T05:20:53.104Z,191.25
2023-04-30T05:21:53.125Z,174.38
2023-04-30T05:22:53.145Z,185.63
2023-04-30T05:23:53.741Z,196.88
2023-04-30T05:24:53.184Z,225.00
2023-04-30T05:25:53.225Z,225.00
2023-04-30T05:26:53.235Z,213.75
2023-04-30T05:27:53.275Z,213.75
2023-04-30T05:28:53.320Z,185.63
2023-04-30T05:29:53.493Z,202.50
2023-04-30T05:30:53.324Z,270.00
2023-04-30T05:31:53.409Z,241.88
2023-04-30T05:32:53.393Z,202.50
2023-04-30T05:33:53.393Z,281.25
2023-04-30T05:34:53.417Z,286.88
2023-04-30T05:35:53.445Z,208.13
2023-04-30T05:36:53.456Z,241.88
2023-04-30T05:37:53.497Z,371.25
2023-04-30T05:38:53.500Z,388.13
2023-04-30T05:39:53.647Z,326.25
2023-04-30T05:40:53.549Z,303.75
2023-04-30T05:41:53.621Z,348.75
2023-04-30T05:42:53.592Z,331.88
2023-04-30T05:43:53.616Z,219.38
2023-04-30T05:44:53.640Z,202.50
2023-04-30T05:45:53.720Z,230.63
2023-04-30T05:46:53.681Z,241.88
2023-04-30T05:47:53.745Z,236.25
2023-04-30T05:48:53.739Z,225.00
2023-04-30T05:49:53.992Z,219.38
2023-04-30T05:50:53.855Z,241.88
2023-04-30T05:51:53.799Z,286.88
2023-04-30T05:52:53.822Z,286.88
2023-04-30T05:53:53.840Z,298.13
2023-04-30T05:54:53.872Z,236.25
2023-04-30T05:55:53.885Z,202.50
2023-04-30T05:56:53.907Z,241.88
2023-04-30T05:57:53.944Z,309.38
2023-04-30T05:58:53.948Z,388.13
2023-04-30T05:59:54.299Z,495.00
2023-04-30T06:00:54.001Z,562.50
2023-04-30T06:01:54.039Z,601.88
2023-04-30T06:02:54.102Z,613.13
2023-04-30T06:03:54.067Z,618.75
2023-04-30T06:04:54.166Z,624.38
2023-04-30T06:05:54.188Z,630.00
2023-04-30T06:06:54.147Z,641.25
2023-04-30T06:07:54.165Z,646.88
2023-04-30T06:08:54.189Z,658.13
2023-04-30T06:09:54.422Z,663.75
2023-04-30T06:10:54.225Z,675.00
2023-04-30T06:11:54.259Z,680.63
2023-04-30T06:12:54.275Z,691.88
2023-04-30T06:13:54.310Z,691.88
2023-04-30T06:14:54.355Z,697.50
2023-04-30T06:15:54.366Z,708.75
2023-04-30T06:16:54.473Z,708.75
2023-04-30T06:17:54.457Z,725.63
2023-04-30T06:18:54.443Z,731.25
2023-04-30T06:19:54.764Z,736.88
2023-04-30T06:20:54.515Z,742.50
2023-04-30T06:21:54.507Z,748.13
2023-04-30T06:22:54.557Z,759.38
2023-04-30T06:23:54.589Z,770.63
2023-04-30T06:24:54.602Z,776.25
2023-04-30T06:25:54.621Z,781.88
2023-04-30T06:26:54.637Z,793.13
2023-04-30T06:27:54.702Z,815.63
2023-04-30T06:28:54.688Z,815.63
2023-04-30T06:29:54.958Z,838.13
2023-04-30T06:30:54.806Z,877.50
2023-04-30T06:31:54.928Z,933.75
2023-04-30T06:32:54.837Z,1091.25
2023-04-30T06:33:54.839Z,1220.63
2023-04-30T06:34:54.864Z,1333.13
2023-04-30T06:35:54.888Z,1400.63
2023-04-30T06:36:54.919Z,1406.25
2023-04-30T06:37:54.961Z,1451.25
2023-04-30T06:38:54.966Z,1468.13
2023-04-30T06:39:55.224Z,1434.38
2023-04-30T06:40:55.014Z,1428.75
2023-04-30T06:41:55.046Z,1327.50
2023-04-30T06:42:55.056Z,1389.38
2023-04-30T06:43:55.077Z,1558.13
2023-04-30T06:44:55.130Z,1636.88
2023-04-30T06:45:55.163Z,1681.88
2023-04-30T06:46:55.167Z,1732.50
2023-04-30T06:47:55.238Z,1777.50
2023-04-30T06:48:55.211Z,1811.25
2023-04-30T06:49:55.515Z,1811.25
2023-04-30T06:50:55.269Z,1856.25
2023-04-30T06:51:55.300Z,1929.38
2023-04-30T06:52:55.322Z,1957.50
2023-04-30T06:53:55.361Z,1957.50
2023-04-30T06:54:55.385Z,1980.00
2023-04-30T06:55:55.430Z,1957.50
2023-04-30T06:56:55.427Z,1946.25
2023-04-30T06:57:55.459Z,1912.50
2023-04-30T06:58:55.490Z,1929.38
2023-04-30T06:59:55.729Z,1946.25
2023-04-30T07:00:55.543Z,1816.88
2023-04-30T07:01:55.619Z,1496.25
2023-04-30T07:02:55.723Z,680.63
2023-04-30T07:03:55.892Z,236.25
2023-04-30T07:04:55.654Z,202.50
2023-04-30T07:05:55.691Z,196.88
2023-04-30T07:06:55.704Z,196.88
2023-04-30T07:07:55.770Z,196.88
2023-04-30T07:08:55.766Z,196.88
2023-04-30T07:09:56.313Z,196.88
2023-04-30T07:10:55.813Z,202.50
2023-04-30T07:11:55.837Z,196.88
2023-04-30T07:12:55.857Z,196.88
2023-04-30T07:13:55.904Z,191.25
2023-04-30T07:14:55.920Z,191.25
2023-04-30T07:15:55.950Z,191.25
2023-04-30T07:16:55.959Z,191.25
2023-04-30T07:17:56.044Z,191.25
2023-04-30T07:18:56.018Z,191.25
2023-04-30T07:19:56.299Z,191.25
2023-04-30T07:20:56.052Z,185.63
2023-04-30T07:21:56.076Z,185.63
2023-04-30T07:22:56.103Z,185.63
2023-04-30T07:23:56.140Z,185.63
2023-04-30T07:24:56.149Z,185.63
2023-04-30T07:25:56.176Z,191.25
2023-04-30T07:26:56.197Z,191.25
2023-04-30T07:27:56.224Z,191.25
2023-04-30T07:28:56.245Z,191.25
2023-04-30T07:29:56.908Z,196.88
2023-04-30T07:30:56.291Z,191.25
2023-04-30T07:31:56.417Z,191.25
2023-04-30T07:32:56.392Z,191.25
2023-04-30T07:33:56.360Z,191.25
2023-04-30T07:34:56.388Z,191.25
2023-04-30T07:35:56.414Z,191.25
2023-04-30T07:36:56.434Z,191.25
2023-04-30T07:37:56.459Z,191.25
2023-04-30T07:38:56.490Z,185.63
2023-04-30T07:39:56.734Z,185.63
2023-04-30T07:40:56.527Z,185.63
2023-04-30T07:41:56.560Z,185.63
2023-04-30T07:42:56.613Z,185.63
2023-04-30T07:43:56.598Z,185.63
2023-04-30T07:44:56.631Z,185.63
2023-04-30T07:45:56.651Z,185.63
2023-04-30T07:46:56.661Z,185.63
2023-04-30T07:47:56.787Z,185.63
2023-04-30T07:48:56.710Z,185.63
2023-04-30T07:49:56.893Z,185.63
2023-04-30T07:50:56.758Z,185.63
2023-04-30T07:51:56.802Z,185.63
2023-04-30T07:52:56.809Z,185.63
2023-04-30T07:53:56.821Z,185.63
2023-04-30T07:54:56.856Z,185.63
2023-04-30T07:55:56.878Z,185.63
2023-04-30T07:56:56.973Z,180.00
2023-04-30T07:57:56.949Z,180.00
2023-04-30T07:58:56.944Z,185.63
2023-04-30T07:59:57.141Z,185.63
2023-04-30T08:00:56.996Z,185.63
2023-04-30T08:01:57.182Z,185.63
2023-04-30T08:02:57.155Z,185.63
2023-04-30T08:03:57.199Z,185.63
2023-04-30T08:04:57.087Z,185.63
2023-04-30T08:05:57.167Z,185.63
2023-04-30T08:06:57.130Z,180.00
2023-04-30T08:07:57.156Z,180.00
2023-04-30T08:08:57.177Z,174.38
2023-04-30T08:09:57.380Z,174.38
2023-04-30T08:10:57.226Z,174.38
2023-04-30T08:11:57.251Z,174.38
2023-04-30T08:12:57.282Z,174.38
2023-04-30T08:13:57.295Z,174.38
2023-04-30T08:14:57.332Z,180.00
2023-04-30T08:15:57.347Z,174.38
2023-04-30T08:16:57.460Z,180.00
2023-04-30T08:17:57.457Z,180.00
2023-04-30T08:18:57.410Z,180.00
2023-04-30T08:19:57.434Z,174.38
2023-04-30T08:20:57.472Z,180.00
2023-04-30T08:21:57.490Z,174.38
2023-04-30T08:22:57.500Z,174.38
2023-04-30T08:23:57.532Z,174.38
2023-04-30T08:24:57.570Z,174.38
2023-04-30T08:25:57.578Z,168.75
2023-04-30T08:26:57.652Z,168.75
2023-04-30T08:27:57.621Z,168.75
2023-04-30T08:28:57.644Z,168.75
2023-04-30T08:29:57.834Z,168.75
2023-04-30T08:30:57.690Z,168.75
2023-04-30T08:31:57.766Z,163.13
2023-04-30T08:32:57.936Z,163.13
2023-04-30T08:33:57.991Z,163.13
2023-04-30T08:34:57.796Z,163.13
2023-04-30T08:35:57.804Z,163.13
2023-04-30T08:36:57.830Z,163.13
2023-04-30T08:37:57.850Z,163.13
2023-04-30T08:38:57.878Z,163.13
2023-04-30T08:39:57.900Z,163.13
2023-04-30T08:40:58.072Z,163.13
2023-04-30T08:41:57.951Z,157.50
2023-04-30T08:42:57.971Z,163.13
2023-04-30T08:43:57.993Z,157.50
2023-04-30T08:44:58.018Z,157.50
2023-04-30T08:45:58.061Z,157.50
2023-04-30T08:46:58.067Z,157.50
2023-04-30T08:47:58.180Z,157.50
2023-04-30T08:48:58.116Z,157.50
2023-04-30T08:49:58.166Z,157.50
2023-04-30T08:50:58.220Z,157.50
2023-04-30T08:51:58.180Z,157.50
2023-04-30T08:52:58.209Z,157.50
2023-04-30T08:53:58.229Z,157.50
2023-04-30T08:54:58.401Z,157.50
2023-04-30T08:55:58.286Z,157.50
2023-04-30T08:56:58.295Z,157.50
2023-04-30T08:57:58.328Z,157.50
2023-04-30T08:58:58.342Z,157.50
2023-04-30T08:59:58.366Z,157.50
2023-04-30T09:00:58.388Z,157.50
2023-04-30T09:01:58.515Z,157.50
2023-04-30T09:02:58.508Z,157.50
2023-04-30T09:03:58.584Z,157.50
2023-04-30T09:04:58.483Z,157.50
2023-04-30T09:05:58.526Z,157.50
2023-04-30T09:06:58.529Z,157.50
2023-04-30T09:08:03.772Z,157.50
2023-04-30T09:08:58.571Z,157.50
2023-04-30T09:09:58.602Z,157.50
2023-04-30T09:10:58.624Z,157.50
2023-04-30T09:11:58.645Z,151.88
2023-04-30T09:12:58.668Z,151.88
2023-04-30T09:13:58.693Z,151.88
2023-04-30T09:14:58.741Z,151.88
2023-04-30T09:15:58.770Z,151.88
2023-04-30T09:16:58.764Z,151.88
2023-04-30T09:17:58.815Z,151.88
2023-04-30T09:18:58.819Z,151.88
2023-04-30T09:19:58.833Z,151.88
2023-04-30T09:20:58.863Z,151.88
2023-04-30T09:21:59.083Z,151.88
2023-04-30T09:22:58.912Z,151.88
2023-04-30T09:23:58.937Z,151.88
2023-04-30T09:24:58.950Z,151.88
2023-04-30T09:25:58.980Z,151.88
2023-04-30T09:26:59.002Z,151.88
2023-04-30T09:27:59.021Z,151.88
2023-04-30T09:28:59.071Z,151.88
2023-04-30T09:29:59.072Z,151.88
2023-04-30T09:30:59.105Z,151.88
2023-04-30T09:31:59.138Z,151.88
2023-04-30T09:32:59.174Z,151.88
2023-04-30T09:33:59.167Z,146.25
2023-04-30T09:34:59.199Z,146.25
2023-04-30T09:35:59.216Z,146.25
2023-04-30T09:36:59.232Z,151.88
2023-04-30T09:37:59.359Z,151.88
2023-04-30T09:38:59.288Z,151.88
2023-04-30T09:39:59.304Z,151.88
2023-04-30T09:40:59.336Z,146.25
2023-04-30T09:41:59.374Z,146.25
2023-04-30T09:42:59.398Z,146.25
2023-04-30T09:43:59.420Z,146.25
2023-04-30T09:44:59.427Z,146.25
2023-04-30T09:45:59.551Z,146.25
2023-04-30T09:46:59.657Z,146.25
2023-04-30T09:48:08.975Z,146.25
2023-04-30T09:48:59.515Z,146.25
2023-04-30T09:49:59.540Z,146.25
2023-04-30T09:50:59.581Z,146.25
2023-04-30T09:51:59.618Z,146.25
2023-04-30T09:52:59.616Z,146.25
2023-04-30T09:53:59.667Z,146.25
2023-04-30T09:54:59.683Z,146.25
2023-04-30T09:55:59.698Z,146.25
2023-04-30T09:56:59.709Z,146.25
2023-04-30T09:57:59.729Z,146.25
2023-04-30T09:58:59.750Z,146.25
2023-04-30T09:59:59.780Z,146.25
2023-04-30T10:00:59.829Z,146.25
2023-04-30T10:01:59.837Z,146.25
2023-04-30T10:02:59.886Z,146.25
2023-04-30T10:03:59.901Z,146.25
2023-04-30T10:04:59.896Z,146.25
2023-04-30T10:05:59.923Z,146.25
2023-04-30T10:06:59.941Z,146.25
2023-04-30T10:07:59.973Z,146.25
2023-04-30T10:08:59.991Z,146.25
2023-04-30T10:10:00.019Z,146.25
2023-04-30T10:11:00.061Z,151.88
2023-04-30T10:12:00.079Z,146.25
2023-04-30T10:13:00.101Z,146.25
2023-04-30T10:14:00.106Z,146.25
2023-04-30T10:15:00.156Z,146.25
2023-04-30T10:16:00.192Z,146.25
2023-04-30T10:17:00.262Z,146.25
2023-04-30T10:18:00.284Z,146.25
2023-04-30T10:19:00.237Z,146.25
2023-04-30T10:20:00.278Z,146.25
2023-04-30T10:21:00.282Z,146.25
2023-04-30T10:22:00.307Z,146.25
2023-04-30T10:23:00.343Z,146.25
2023-04-30T10:24:00.355Z,146.25
2023-04-30T10:25:00.379Z,146.25
2023-04-30T10:26:00.403Z,146.25
2023-04-30T10:27:00.425Z,146.25
2023-04-30T10:28:01.132Z,146.25
2023-04-30T10:29:00.478Z,146.25
2023-04-30T10:30:00.505Z,146.25
2023-04-30T10:31:00.522Z,146.25
2023-04-30T10:32:00.570Z,146.25
2023-04-30T10:33:00.616Z,146.25
2023-04-30T10:34:00.594Z,146.25
2023-04-30T10:35:00.618Z,146.25
2023-04-30T10:36:00.653Z,146.25
2023-04-30T10:37:00.667Z,146.25
2023-04-30T10:38:00.692Z,146.25
2023-04-30T10:39:00.718Z,146.25
2023-04-30T10:40:00.760Z,146.25
2023-04-30T10:41:00.764Z,146.25
2023-04-30T10:42:00.785Z,146.25
2023-04-30T10:43:00.817Z,146.25
2023-04-30T10:44:01.993Z,146.25
2023-04-30T10:45:00.872Z,146.25
2023-04-30T10:46:00.945Z,146.25
2023-04-30T10:47:00.953Z,146.25
2023-04-30T10:48:00.970Z,146.25
2023-04-30T10:49:00.962Z,146.25
2023-04-30T10:50:00.992Z,146.25
2023-04-30T10:51:01.017Z,140.63
2023-04-30T10:52:01.039Z,140.63
2023-04-30T10:53:01.063Z,140.63
2023-04-30T10:54:01.094Z,140.63
2023-04-30T10:55:01.111Z,135.00
2023-04-30T10:56:01.128Z,140.63
2023-04-30T10:57:01.153Z,140.63
2023-04-30T10:58:01.180Z,140.63
2023-04-30T10:59:01.223Z,140.63
2023-04-30T11:00:01.231Z,140.63
2023-04-30T11:01:01.310Z,140.63
2023-04-30T11:02:01.349Z,140.63
2023-04-30T11:03:01.314Z,140.63
2023-04-30T11:04:01.341Z,140.63
2023-04-30T11:05:01.374Z,140.63
2023-04-30T11:06:01.405Z,135.00
2023-04-30T11:07:01.398Z,135.00
2023-04-30T11:08:01.424Z,135.00
2023-04-30T11:09:01.448Z,135.00
2023-04-30T11:10:01.473Z,135.00
2023-04-30T11:11:01.499Z,140.63
2023-04-30T11:12:01.525Z,140.63
2023-04-30T11:13:01.792Z,135.00
2023-04-30T11:14:01.930Z,140.63
2023-04-30T11:15:01.645Z,135.00
2023-04-30T11:16:01.639Z,135.00
2023-04-30T11:17:01.650Z,135.00
2023-04-30T11:18:01.749Z,135.00
2023-04-30T11:19:01.704Z,140.63
2023-04-30T11:20:01.733Z,135.00
2023-04-30T11:21:01.745Z,135.00
2023-04-30T11:22:01.773Z,135.00
2023-04-30T11:23:01.811Z,135.00
2023-04-30T11:24:01.828Z,135.00
2023-04-30T11:25:01.863Z,135.00
2023-04-30T11:26:01.876Z,135.00
2023-04-30T11:27:01.896Z,135.00
2023-04-30T11:28:01.916Z,135.00
2023-04-30T11:29:01.953Z,140.63
2023-04-30T11:30:01.987Z,135.00
2023-04-30T11:31:02.121Z,135.00
2023-04-30T11:32:02.268Z,135.00
2023-04-30T11:33:02.112Z,135.00
2023-04-30T11:34:02.076Z,135.00
2023-04-30T11:35:02.122Z,135.00
2023-04-30T11:36:02.140Z,135.00
2023-04-30T11:37:02.153Z,129.38
2023-04-30T11:38:02.166Z,129.38
2023-04-30T11:39:02.194Z,129.38
2023-04-30T11:40:02.227Z,129.38
2023-04-30T11:41:02.239Z,129.38
2023-04-30T11:42:02.265Z,129.38
2023-04-30T11:43:02.306Z,135.00
2023-04-30T11:44:02.320Z,135.00
2023-04-30T11:45:02.351Z,135.00
2023-04-30T11:46:02.375Z,135.00
2023-04-30T11:47:02.451Z,135.00
2023-04-30T11:48:02.497Z,135.00
2023-04-30T11:49:02.441Z,135.00
2023-04-30T11:50:02.468Z,129.38
2023-04-30T11:51:02.496Z,129.38
2023-04-30T11:52:02.516Z,129.38
2023-04-30T11:53:02.544Z,129.38
2023-04-30T11:54:02.570Z,129.38
2023-04-30T11:55:02.589Z,129.38
2023-04-30T11:56:02.624Z,135.00
2023-04-30T11:57:02.641Z,135.00
2023-04-30T11:58:02.665Z,135.00
2023-04-30T11:59:02.690Z,135.00
2023-04-30T12:00:02.711Z,129.38
2023-04-30T12:01:02.747Z,129.38
2023-04-30T12:02:02.804Z,129.38
2023-04-30T12:03:02.897Z,129.38
2023-04-30T12:04:02.908Z,129.38
2023-04-30T12:05:02.850Z,129.38
2023-04-30T12:06:02.893Z,129.38
2023-04-30T12:07:02.890Z,129.38
2023-04-30T12:08:02.915Z,129.38
2023-04-30T12:09:02.933Z,129.38
2023-04-30T12:10:02.973Z,129.38
2023-04-30T12:11:03.033Z,129.38
2023-04-30T12:12:03.011Z,129.38
2023-04-30T12:13:03.031Z,129.38
2023-04-30T12:14:03.069Z,129.38
2023-04-30T12:15:03.084Z,129.38
2023-04-30T12:16:03.117Z,129.38
2023-04-30T12:17:03.185Z,129.38
2023-04-30T12:18:03.312Z,129.38
2023-04-30T12:19:03.186Z,129.38
2023-04-30T12:20:03.209Z,129.38
2023-04-30T12:21:03.238Z,129.38
2023-04-30T12:22:03.261Z,129.38
2023-04-30T12:23:03.292Z,129.38
2023-04-30T12:24:03.755Z,129.38
2023-04-30T12:25:03.336Z,129.38
2023-04-30T12:26:03.353Z,129.38
2023-04-30T12:27:03.396Z,129.38
2023-04-30T12:28:03.411Z,129.38
2023-04-30T12:29:03.438Z,129.38
2023-04-30T12:30:03.500Z,129.38
2023-04-30T12:31:03.493Z,129.38
2023-04-30T12:32:03.603Z,129.38
2023-04-30T12:33:03.627Z,129.38
2023-04-30T12:34:03.559Z,129.38
2023-04-30T12:35:03.584Z,129.38
2023-04-30T12:36:03.608Z,129.38
2023-04-30T12:37:03.639Z,129.38
2023-04-30T12:38:03.669Z,129.38
2023-04-30T12:39:03.680Z,129.38
2023-04-30T12:40:03.709Z,129.38
2023-04-30T12:41:03.735Z,129.38
2023-04-30T12:42:03.759Z,129.38
2023-04-30T12:43:03.798Z,129.38
2023-04-30T12:44:03.809Z,129.38